Latest Weather Observations for Coolangatta

IDN60801

Issued at 7:32 pm EST Sunday 30 August 2015 (issued every 30 minutes, with the page automatically refreshed every 10 minutes)

About weather observations | Map of weather stations | Latest weather observations for NSW | Other Formats
Station Details ID: 040717 Name: COOLANGATTA Lat: -28.17 Lon: 153.51 Height: 4.0 m
Data from the previous 72 hours. | See also: Recent months at Coolangatta
Date/Time
EST
Temp
°C
App
Temp
°C
Dew
Point
Rel
Hum
%
Delta-T
°C
Wind Press
QNH
hPa
Press
MSL
hPa
Rain
since 9 am
mm
Dir
 
Spd
km/h
Gust
km/h
Spd
kts
Gust
kts
30/07:30pm 16.2 13.6 12.0 76 2.3 S 17 24 9 13 1015.6 1015.6 0.2
30/07:00pm 16.2 13.5 11.6 74 2.5 S 17 24 9 13 1015.3 1015.3 0.2
30/06:30pm 16.0 14.0 11.4 74 2.5 S 13 19 7 10 1014.9 1014.9 0.2
30/06:00pm 16.5 14.5 11.6 73 2.7 S 13 20 7 11 1014.6 1014.6 0.2
30/05:30pm 16.8 15.0 12.1 74 2.6 S 13 20 7 11 1014.3 1014.3 0.2
30/05:00pm 17.9 15.5 12.6 71 2.9 SSE 17 24 9 13 1013.8 1013.8 0.2
30/04:30pm 18.6 15.6 12.6 68 3.4 SSE 20 30 11 16 1013.5 1013.5 0.2
30/04:00pm 18.8 15.8 12.1 65 3.7 SSE 19 28 10 15 1013.4 1013.4 0.2
30/03:30pm 19.6 15.3 11.9 61 4.3 SSE 26 33 14 18 1013.2 1013.2 0.2
30/03:00pm 19.4 15.4 11.7 61 4.2 SE 24 33 13 18 1013.4 1013.4 0.2
30/02:30pm 19.9 15.3 12.4 62 4.2 SE 28 33 15 18 1013.5 1013.5 0.2
30/02:00pm 19.4 14.5 12.4 64 3.9 SE 30 39 16 21 1013.7 1013.7 0.2
30/01:30pm 21.8 18.2 10.0 47 6.4 S 19 26 10 14 1013.8 1013.8 0.2
30/01:00pm 21.6 19.1 9.8 47 6.4 SSW 13 20 7 11 1014.2 1014.2 0.2
30/12:30pm 21.5 18.4 10.3 49 6.1 S 17 26 9 14 1014.5 1014.5 0.2
30/12:00pm 20.8 17.8 9.4 48 6.1 SSW 15 20 8 11 1015.0 1015.0 0.2
30/11:30am 20.4 16.7 9.3 49 5.9 SSW 19 28 10 15 1015.6 1015.6 0.0
30/11:00am 20.0 16.8 10.1 53 5.3 SSW 17 24 9 13 1016.1 1016.1 0.0
30/10:30am 19.6 17.1 10.9 57 4.7 SW 15 24 8 13 1016.6 1016.6 0.0
30/10:00am 17.6 15.8 10.9 65 3.6 SW 11 17 6 9 1017.0 1017.0 0.0
30/09:30am 16.9 15.1 12.2 74 2.6 SW 13 20 7 11 1017.1 1017.1 0.0
30/09:00am 16.1 15.2 13.6 85 1.4 S 11 13 6 7 1017.0 1017.0 4.4
30/08:30am 16.0 15.8 14.7 92 0.7 S 9 9 5 5 1017.1 1017.1 4.4
30/08:00am 15.5 16.9 14.4 93 0.6 CALM 0 0 0 0 1017.0 1017.0 4.4
30/07:30am 15.6 15.4 14.8 95 0.5 WSW 9 11 5 6 1016.7 1016.7 4.4
30/07:00am 15.1 16.5 14.5 96 0.3 CALM 0 0 0 0 1016.8 1016.8 4.4
30/06:30am 14.5 14.3 13.7 95 0.4 WNW 7 7 4 4 1016.4 1016.4 4.4
30/06:00am 14.6 15.0 13.6 94 0.6 W 4 7 2 4 1016.3 1016.3 4.4
30/05:30am 14.8 14.7 13.8 94 0.6 WSW 7 7 4 4 1015.9 1015.9 4.4
30/05:00am 15.2 15.3 13.9 92 0.7 SW 6 7 3 4 1015.5 1015.5 4.4
30/04:30am 15.5 15.1 14.0 91 0.8 WSW 9 11 5 6 1015.6 1015.6 4.4
30/04:00am 15.5 14.8 14.2 92 0.7 WSW 11 13 6 7 1016.0 1016.0 4.4
30/03:30am 15.6 15.6 14.1 91 0.8 W 7 11 4 6 1016.0 1016.0 4.4
30/03:00am 15.4 14.7 14.3 93 0.6 NW 11 15 6 8 1016.6 1016.6 4.4
30/02:30am 15.4 16.1 14.4 94 0.6 WSW 4 7 2 4 1016.6 1016.6 4.4
30/02:00am 15.5 15.6 14.4 93 0.6 NW 7 9 4 5 1016.8 1016.8 4.4
30/01:30am 15.5 15.2 14.5 94 0.6 WNW 9 13 5 7 1017.6 1017.6 4.4
30/01:00am 15.2 15.3 14.4 95 0.5 NW 7 9 4 5 1017.9 1017.9 4.4
30/12:30am 15.3 14.7 14.5 95 0.5 W 11 13 6 7 1018.3 1018.3 4.2
30/12:00am 15.6 15.8 14.8 95 0.5 WSW 7 9 4 5 1018.6 1018.6 4.0
 
Date/Time
EST
Temp
°C
App
Temp
°C
Dew
Point
Rel
Hum
%
Delta-T
°C
Wind Press
QNH
hPa
Press
MSL
hPa
Rain
since 9 am
mm
Dir
 
Spd
km/h
Gust
km/h
Spd
kts
Gust
kts
29/11:30pm 15.5 15.9 14.7 95 0.5 WSW 6 7 3 4 1018.6 1018.6 4.0
29/11:00pm 15.4 15.1 14.4 94 0.6 W 9 11 5 6 1018.9 1018.9 4.0
29/10:59pm 15.4 15.1 14.4 94 0.6 W 9 11 5 6 1018.9 1018.9 4.0
29/10:30pm 15.4 15.1 14.3 93 0.6 W 9 13 5 7 1018.9 1018.9 3.8
29/10:27pm 15.4 14.7 14.4 94 0.6 W 11 13 6 7 1019.0 1019.0 3.8
29/10:00pm 15.4 14.7 14.4 94 0.6 W 11 13 6 7 1019.3 1019.3 3.4
29/09:30pm 15.8 15.2 14.7 93 0.6 WNW 11 15 6 8 1019.4 1019.4 3.2
29/09:04pm 15.9 15.3 14.6 92 0.7 NNW 11 17 6 9 1019.3 1019.3 2.6
29/09:00pm 15.8 15.5 14.5 92 0.7 NNW 9 11 5 6 1019.5 1019.5 2.6
29/08:51pm 15.8 16.1 14.5 92 0.7 NNW 6 9 3 5 1019.7 1019.7 2.0
29/08:30pm 15.8 15.5 14.5 92 0.7 WNW 9 11 5 6 1020.1 1020.1 1.2
29/08:00pm 16.1 15.8 14.5 90 0.9 WNW 9 11 5 6 1020.0 1020.0 0.6
29/07:30pm 16.8 16.9 14.4 86 1.4 NW 7 9 4 5 1019.7 1019.7 0.2
29/07:00pm 17.3 16.4 13.8 80 2.0 NNW 11 13 6 7 1020.0 1020.0 0.2
29/06:30pm 18.8 16.9 13.0 69 3.3 N 15 19 8 10 1019.9 1019.9 0.0
29/06:00pm 19.5 18.6 12.5 64 3.9 NNE 9 13 5 7 1019.6 1019.6 0.0
29/05:30pm 19.7 18.1 11.7 60 4.4 NE 11 15 6 8 1019.2 1019.2 0.0
29/05:00pm 19.7 17.8 11.7 60 4.4 NE 13 15 7 8 1018.9 1018.9 0.0
29/04:30pm 19.9 17.9 11.4 58 4.7 NE 13 17 7 9 1018.6 1018.6 0.0
29/04:00pm 20.2 17.9 11.7 58 4.7 NE 15 20 8 11 1018.6 1018.6 0.0
29/03:30pm 20.3 17.9 11.5 57 4.9 NE 15 20 8 11 1018.8 1018.8 0.0
29/03:00pm 20.6 17.8 11.2 55 5.2 NE 17 22 9 12 1019.0 1019.0 0.0
29/02:30pm 20.3 17.8 11.2 56 5.0 NE 15 20 8 11 1019.4 1019.4 0.0
29/02:00pm 20.8 19.1 12.5 59 4.7 ENE 13 19 7 10 1019.8 1019.8 0.0
29/01:30pm 20.9 18.9 12.6 59 4.7 ENE 15 20 8 11 1020.1 1020.1 0.0
29/01:00pm 21.2 18.7 12.3 57 5.0 ENE 17 20 9 11 1020.5 1020.5 0.0
29/12:30pm 20.6 17.8 11.5 56 5.0 ENE 17 20 9 11 1021.0 1021.0 0.0
29/12:00pm 21.4 18.7 11.7 54 5.4 NE 17 20 9 11 1021.6 1021.6 0.0
29/11:30am 21.7 19.1 10.8 50 6.0 ENE 15 20 8 11 1022.0 1022.0 0.0
29/11:00am 21.5 19.2 10.6 50 5.9 ENE 13 19 7 10 1022.5 1022.5 0.0
29/10:30am 21.6 19.4 10.7 50 6.0 NE 13 19 7 10 1022.8 1022.8 0.0
29/10:00am 20.4 18.7 11.1 55 5.1 ESE 11 17 6 9 1022.9 1022.9 0.0
29/09:30am 20.4 18.5 11.9 58 4.7 SSE 13 17 7 9 1022.9 1022.9 0.0
29/09:00am 19.6 17.6 11.6 60 4.4 S 13 17 7 9 1023.1 1023.1 0.2
29/08:30am 18.6 17.5 12.1 66 3.6 SSE 9 13 5 7 1023.1 1023.1 0.2
29/08:00am 16.4 16.3 13.3 82 1.7 SSE 6 7 3 4 1023.0 1023.0 0.2
29/07:30am 14.3 14.9 13.0 92 0.7 S 2 7 1 4 1022.9 1022.9 0.2
29/07:00am 12.3 12.8 11.5 95 0.4 CALM 0 6 0 3 1022.8 1022.8 0.2
29/06:30am 11.6 10.8 11.0 96 0.3 SSW 6 7 3 4 1022.4 1022.4 0.2
29/06:00am 10.9 9.8 10.1 95 0.4 SW 6 7 3 4 1022.1 1022.1 0.2
29/05:30am 11.2 10.0 10.4 95 0.4 SSE 7 9 4 5 1021.9 1021.9 0.2
29/05:00am 10.7 9.4 9.9 95 0.4 SW 7 9 4 5 1021.5 1021.5 0.2
29/04:30am 10.8 9.7 10.0 95 0.4 SSW 6 7 3 4 1021.5 1021.5 0.2
29/04:00am 10.8 9.8 10.2 96 0.3 SSW 6 7 3 4 1021.6 1021.6 0.2
29/03:30am 11.0 9.8 10.2 95 0.4 SW 7 7 4 4 1021.6 1021.6 0.2
29/03:00am 11.1 11.2 10.3 95 0.4 CALM 0 0 0 0 1021.9 1021.9 0.2
29/02:30am 11.0 10.3 10.1 94 0.5 SSW 4 9 2 5 1021.8 1021.8 0.2
29/02:00am 11.2 10.0 10.3 94 0.5 S 7 11 4 6 1021.8 1021.8 0.2
29/01:30am 11.8 10.8 11.0 95 0.4 SW 7 9 4 5 1022.0 1022.0 0.2
29/01:00am 11.5 10.6 10.6 94 0.5 SW 6 7 3 4 1022.2 1022.2 0.2
29/12:30am 12.2 11.4 10.9 92 0.7 SSW 6 7 3 4 1022.5 1022.5 0.2
29/12:00am 12.8 11.9 11.4 91 0.7 SW 7 13 4 7 1022.5 1022.5 0.2
 
Date/Time
EST
Temp
°C
App
Temp
°C
Dew
Point
Rel
Hum
%
Delta-T
°C
Wind Press
QNH
hPa
Press
MSL
hPa
Rain
since 9 am
mm
Dir
 
Spd
km/h
Gust
km/h
Spd
kts
Gust
kts
28/11:30pm 12.7 11.5 11.6 93 0.6 SW 9 13 5 7 1022.2 1022.2 0.2
28/11:00pm 12.7 12.0 11.3 91 0.7 SW 6 9 3 5 1022.3 1022.3 0.2
28/10:30pm 13.1 12.2 11.3 89 1.0 SSW 7 9 4 5 1022.5 1022.5 0.2
28/10:00pm 13.8 12.5 11.3 85 1.3 SW 9 11 5 6 1022.6 1022.6 0.2
28/09:30pm 13.8 14.3 11.7 87 1.1 CALM 0 0 0 0 1022.7 1022.7 0.2
28/09:00pm 14.1 13.9 11.8 86 1.2 SSW 4 7 2 4 1022.7 1022.7 0.2
28/08:30pm 14.7 15.3 11.8 83 1.6 CALM 0 4 0 2 1022.5 1022.5 0.2
28/08:00pm 15.5 15.0 11.9 79 1.9 SW 6 9 3 5 1022.2 1022.2 0.2
28/07:30pm 15.5 13.8 12.6 83 1.6 WSW 13 15 7 8 1021.8 1021.8 0.2
28/07:00pm 15.5 13.4 12.3 81 1.7 WSW 15 19 8 10 1021.2 1021.2 0.2
28/06:30pm 15.6 14.4 12.7 83 1.6 WSW 11 13 6 7 1020.7 1020.7 0.2
28/06:00pm 16.2 16.1 10.7 70 2.9 SE 2 6 1 3 1020.4 1020.4 0.2
28/05:30pm 18.4 16.6 10.7 61 4.1 ENE 11 13 6 7 1020.1 1020.1 0.2
28/05:00pm 19.2 17.0 10.7 58 4.6 E 13 17 7 9 1019.8 1019.8 0.2
28/04:30pm 20.0 17.9 11.2 57 4.8 ESE 13 19 7 10 1019.7 1019.7 0.2
28/04:00pm 20.4 18.0 11.3 56 5.0 E 15 24 8 13 1019.3 1019.3 0.2
28/03:30pm 20.8 17.7 11.7 56 5.1 E 19 24 10 13 1019.0 1019.0 0.2
28/03:00pm 21.4 18.5 10.9 51 5.8 E 17 20 9 11 1018.8 1018.8 0.2
28/02:30pm 21.5 18.9 10.6 50 6.0 E 15 20 8 11 1018.9 1018.9 0.2
28/02:00pm 21.6 19.1 11.0 51 5.8 E 15 20 8 11 1019.0 1019.0 0.2
28/01:30pm 21.1 18.5 10.6 51 5.7 ENE 15 20 8 11 1019.2 1019.2 0.2
28/01:00pm 21.2 18.4 11.2 53 5.5 ENE 17 20 9 11 1019.6 1019.6 0.2
28/12:30pm 21.4 19.3 12.5 57 5.0 NE 15 20 8 11 1020.1 1020.1 0.2
28/12:00pm 20.7 17.8 12.4 59 4.7 NNE 19 22 10 12 1020.4 1020.4 0.2
28/11:30am 21.3 19.1 13.2 60 4.6 N 17 24 9 13 1020.7 1020.7 0.2
28/11:00am 21.7 19.4 10.5 49 6.1 SSE 13 19 7 10 1021.1 1021.1 0.0
28/10:30am 21.3 19.5 12.2 56 5.1 SSE 13 19 7 10 1021.5 1021.5 0.0
28/10:00am 20.8 20.5 13.3 62 4.3 SSW 7 13 4 7 1021.8 1021.8 0.0
28/09:30am 18.4 18.3 13.3 72 2.9 SW 6 9 3 5 1022.0 1022.0 0.0
28/09:00am 17.6 17.8 14.1 80 2.0 SW 6 7 3 4 1021.9 1021.9 2.0
28/08:30am 17.0 16.6 14.1 83 1.7 SSW 9 11 5 6 1021.7 1021.7 2.0
28/08:00am 17.0 17.7 14.6 86 1.4 S 4 9 2 5 1021.8 1021.8 2.0
28/07:30am 16.4 16.8 14.8 90 0.9 SSE 6 7 3 4 1021.3 1021.3 2.0
28/07:00am 16.0 15.9 14.9 93 0.6 SSE 9 13 5 7 1020.7 1020.7 2.0
28/06:30am 16.0 17.4 14.5 91 0.9 CALM 0 0 0 0 1021.0 1021.0 2.0
28/06:00am 15.9 17.3 14.4 91 0.9 CALM 0 0 0 0 1020.6 1020.6 2.0
28/05:30am 15.9 16.1 14.8 93 0.6 SSE 7 13 4 7 1020.1 1020.1 2.0
28/05:00am 15.8 15.9 14.5 92 0.7 SSE 7 11 4 6 1020.0 1020.0 1.8
28/04:30am 15.9 16.7 14.8 93 0.6 SE 4 7 2 4 1019.7 1019.7 1.8
28/04:00am 16.0 16.1 14.4 90 0.9 E 7 9 4 5 1019.4 1019.4 1.8
28/03:30am 16.1 16.4 14.6 91 0.9 NNE 6 9 3 5 1019.2 1019.2 1.8
28/03:00am 16.4 16.2 14.6 89 1.0 NNW 9 11 5 6 1019.5 1019.5 1.8
28/02:30am 16.6 16.0 14.6 88 1.1 NNW 11 13 6 7 1019.8 1019.8 1.8
28/02:00am 16.7 17.0 14.5 87 1.3 W 6 9 3 5 1019.6 1019.6 1.8
28/01:30am 17.0 15.9 14.3 84 1.5 W 13 17 7 9 1020.1 1020.1 1.8
28/01:00am 16.4 15.7 14.2 87 1.2 W 11 13 6 7 1020.4 1020.4 1.8
28/12:30am 16.4 15.6 14.1 86 1.3 W 11 15 6 8 1020.2 1020.2 1.8
28/12:00am 16.0 15.3 14.2 89 1.0 WSW 11 15 6 8 1020.6 1020.6 1.8
 
Date/Time
EST
Temp
°C
App
Temp
°C
Dew
Point
Rel
Hum
%
Delta-T
°C
Wind Press
QNH
hPa
Press
MSL
hPa
Rain
since 9 am
mm
Dir
 
Spd
km/h
Gust
km/h
Spd
kts
Gust
kts
27/11:30pm 15.8 15.5 14.5 92 0.7 WSW 9 15 5 8 1021.0 1021.0 1.8
27/11:00pm 15.6 14.8 14.1 91 0.8 W 11 15 6 8 1021.0 1021.0 1.8
27/10:30pm 14.8 14.6 13.7 93 0.6 W 7 9 4 5 1021.0 1021.0 1.8
27/10:00pm 14.8 14.6 13.7 93 0.6 NW 7 11 4 6 1021.0 1021.0 1.8
27/09:30pm 15.1 15.0 14.0 93 0.6 NNW 7 9 4 5 1020.9 1020.9 1.8
27/09:00pm 15.1 14.7 14.0 93 0.6 WNW 9 11 5 6 1021.0 1021.0 1.8
27/08:30pm 15.2 15.1 13.9 92 0.7 WNW 7 9 4 5 1020.6 1020.6 1.8
27/08:00pm 15.3 14.8 13.8 91 0.8 NNW 9 13 5 7 1020.5 1020.5 1.8

Other Formats:

Comma delimited format used in spreadsheet applications
http://www.bom.gov.au/fwo/IDN60801/IDN60801.94592.axf

JavaScript Object Notation format (JSON) in row-major order
http://www.bom.gov.au/fwo/IDN60801/IDN60801.94592.json